Wilson Lista — 8PRW — position and weather

sailwx.info

Track history (hours):
 
Tides and Currents Weather Stations Pressure Air Temp Water Temp Dewpoint Dewpoint Depression Visibility Wind Speed Wind Dir Waves Ship Positions

Wilson Lista

Last reported at 2017-Nov-20 00:30 UTC. Time now 2017-Nov-22 16:48 UTC.
Position N 54°06' E 009°20'.

Length 88 m; draft 5.4 m.

Type: Cargo ship. MMSI: 314188000.

Date/timePositionNaut miles runAvg speedWind from/ knotsBaromVisibWave heightAir tempDewpointWater temp
2017-Nov-20 00:30N 54°06' E 009°20'5 8.7
2017-Nov-19 23:58N 54°01' E 009°18'4 8.2
2017-Nov-19 23:30N 53°58' E 009°15'2 3.2
2017-Nov-19 23:01N 53°57' E 009°13'1 1.5
2017-Nov-19 22:30N 53°56' E 009°13'3 6.7
2017-Nov-19 22:00N 53°54' E 009°09'0 0.6
2017-Nov-19 21:30N 53°53' E 009°08'2 3.1
2017-Nov-19 21:00N 53°53' E 009°06'3 6.4
2017-Nov-19 20:30N 53°51' E 009°01'4 7.0
2017-Nov-19 20:00N 53°51' E 008°55'4 7.4
2017-Nov-19 19:30N 53°50' E 008°49'4 6.9
2017-Nov-19 19:00N 53°52' E 008°44'3 6.7
2017-Nov-19 18:29N 53°55' E 008°41'3 6.2
2017-Nov-19 17:57N 53°57' E 008°37'3 7.6
2017-Nov-19 17:30N 53°58' E 008°31'4 7.7
2017-Nov-19 16:57N 53°59' E 008°24'3 7.4
2017-Nov-19 16:29N 53°59' E 008°18'4 8.6
2017-Nov-19 16:00N 53°59' E 008°11'3 6.6
2017-Nov-19 15:30N 53°59' E 008°06'4 6.7
2017-Nov-19 14:54N 53°58' E 007°59'249 7.9
2017-Nov-18 07:35N 51°35' E 002°23'1 8.2
2017-Nov-18 07:28N 51°34' E 002°22'4 8.2
2017-Nov-18 07:00N 51°31' E 002°18'4 8.2
2017-Nov-18 06:30N 51°28' E 002°14'4 8.7
2017-Nov-18 05:59N 51°24' E 002°10'4 9.0
2017-Nov-18 05:30N 51°20' E 002°08'5 9.5
2017-Nov-18 05:00N 51°15' E 002°05'5 9.3
2017-Nov-18 04:30N 51°12' E 001°60'510.0
2017-Nov-18 04:00N 51°09' E 001°53'510.2
2017-Nov-18 03:29N 51°06' E 001°47'510.6
2017-Nov-18 03:00N 51°02' E 001°41'610.9
2017-Nov-18 02:30N 50°58' E 001°35'611.5
2017-Nov-18 02:00N 50°54' E 001°29'11710.9
2017-Nov-17 15:16N 50°05' W 001°18'2 8.0
2017-Nov-17 15:00N 50°05' W 001°21'4 7.5
2017-Nov-17 14:30N 50°04' W 001°27'3 7.0
2017-Nov-17 14:01N 50°03' W 001°32'3 6.6
2017-Nov-17 13:31N 50°02' W 001°37'3 6.3
2017-Nov-17 13:01N 50°01' W 001°42'3 6.1
2017-Nov-17 12:30N 50°00' W 001°46'3 6.5
2017-Nov-17 12:00N 49°59' W 001°51'4 7.1
2017-Nov-17 11:30N 49°58' W 001°56'183 9.5
2017-Nov-16 16:15N 48°18' W 005°51'1310.1
2017-Nov-16 14:59N 48°05' W 005°56'610.5
2017-Nov-16 14:26N 47°60' W 005°58'1010.8
2017-Nov-16 13:30N 47°50' W 006°02'711.1
2017-Nov-16 12:50N 47°43' W 006°04'2311.2
2017-Nov-16 10:47N 47°21' W 006°12'2410.0
2017-Nov-16 08:24N 46°57' W 006°20'192 9.8
2017-Nov-15 12:44N 43°50' W 007°25'3 9.4
2017-Nov-15 12:28N 43°48' W 007°25'3 0.1
2017-Nov-14 12:13N 43°45' W 007°25'0 1.8
2017-Nov-14 11:59N 43°45' W 007°25'1 1.9
2017-Nov-14 11:30N 43°45' W 007°26'1 1.7
2017-Nov-14 11:00N 43°45' W 007°27'1 1.9
2017-Nov-14 10:30N 43°45' W 007°29'1 1.6
2017-Nov-14 10:00N 43°45' W 007°28'3 6.4
2017-Nov-14 09:30N 43°46' W 007°24'156 5.0
2017-Nov-13 01:58N 43°27' W 003°49'0 0.0
2017-Nov-13 01:28N 43°27' W 003°49'0 0.0
2017-Nov-13 00:58N 43°27' W 003°49'0 0.0
2017-Nov-13 00:28N 43°27' W 003°49'0 0.0
2017-Nov-13 00:00N 43°27' W 003°49'0 0.0
2017-Nov-12 23:30N 43°27' W 003°49'0 0.0
2017-Nov-12 23:00N 43°27' W 003°49'0 0.0
2017-Nov-12 22:30N 43°27' W 003°49'0 0.0
2017-Nov-12 21:57N 43°27' W 003°49'0 0.0
2017-Nov-12 21:29N 43°27' W 003°49'0 0.0
2017-Nov-12 20:59N 43°27' W 003°49'0 0.0
2017-Nov-12 20:29N 43°27' W 003°49'0 0.0
2017-Nov-12 19:59N 43°27' W 003°49'0 0.0
2017-Nov-12 19:29N 43°27' W 003°49'0 0.0
2017-Nov-12 18:58N 43°27' W 003°49'0 0.0
2017-Nov-12 17:55N 43°27' W 003°49'0 0.0
2017-Nov-12 17:28N 43°27' W 003°49'0 0.0
2017-Nov-12 17:00N 43°27' W 003°49'0 0.0
2017-Nov-12 16:30N 43°27' W 003°49'0 0.0
2017-Nov-12 16:00N 43°27' W 003°49'0 0.0
2017-Nov-12 13:59N 43°27' W 003°49'0 0.0
2017-Nov-12 13:20N 43°27' W 003°49'0 0.0
2017-Nov-12 12:56N 43°27' W 003°49'0 0.0
2017-Nov-12 12:28N 43°27' W 003°49'0 0.0
2017-Nov-12 11:46N 43°27' W 003°49'0 0.0
2017-Nov-12 11:25N 43°27' W 003°49'0 0.0
2017-Nov-12 10:37N 43°27' W 003°49'0 0.0
2017-Nov-12 10:28N 43°27' W 003°49'0 0.0
2017-Nov-12 10:00N 43°27' W 003°49'0 0.0
2017-Nov-12 09:27N 43°27' W 003°49'0 0.0
2017-Nov-12 09:00N 43°27' W 003°49'0 0.0
2017-Nov-12 08:21N 43°27' W 003°49'0 0.0
2017-Nov-12 08:00N 43°27' W 003°49'0 0.0
2017-Nov-12 07:20N 43°27' W 003°49'0 0.0
2017-Nov-12 06:53N 43°27' W 003°49'0 0.0
2017-Nov-12 06:26N 43°27' W 003°49'0 0.0
2017-Nov-12 05:59N 43°27' W 003°49'0 0.0
2017-Nov-12 05:25N 43°27' W 003°49'0 0.0
2017-Nov-12 04:58N 43°27' W 003°49'0 0.0
2017-Nov-12 04:28N 43°27' W 003°49'0 0.0
2017-Nov-12 03:58N 43°27' W 003°49'0 0.0
2017-Nov-12 02:54N 43°27' W 003°49'0 0.0
2017-Nov-12 02:30N 43°27' W 003°49'0 0.0
2017-Nov-12 01:57N 43°27' W 003°49'0 0.0
2017-Nov-12 01:30N 43°27' W 003°49'0 0.0
2017-Nov-12 00:56N 43°27' W 003°49'0 0.0
2017-Nov-12 00:29N 43°27' W 003°49'0 0.0
2017-Nov-11 23:59N 43°27' W 003°49'0 0.0
2017-Nov-11 23:29N 43°27' W 003°49'0 0.0
2017-Nov-11 22:56N 43°27' W 003°49'0 0.0
2017-Nov-11 22:25N 43°27' W 003°49'0 0.0
2017-Nov-11 21:58N 43°27' W 003°49'0 0.0
2017-Nov-11 21:28N 43°27' W 003°49'0 0.0
2017-Nov-11 20:52N 43°27' W 003°49'0 0.0
2017-Nov-11 19:48N 43°27' W 003°49'0 0.0
2017-Nov-11 19:27N 43°27' W 003°49'0 0.0
2017-Nov-11 19:00N 43°27' W 003°49'0 0.0
2017-Nov-11 18:30N 43°27' W 003°49'0 0.0
2017-Nov-11 17:26N 43°27' W 003°49'0 0.0
2017-Nov-11 16:59N 43°27' W 003°49'0 0.0
2017-Nov-11 16:14N 43°27' W 003°49'0 0.1
2017-Nov-11 16:01N 43°27' W 003°49'1 2.6
2017-Nov-11 15:30N 43°27' W 003°48'3 6.2
2017-Nov-11 14:57N 43°31' W 003°46'4 9.4
2017-Nov-11 14:30N 43°35' W 003°47'5 9.6
2017-Nov-11 14:00N 43°39' W 003°49'5 9.5
2017-Nov-11 13:30N 43°44' W 003°51'  
Track history (hours):
 
Tides and Currents Weather Stations Pressure Air Temp Water Temp Dewpoint Dewpoint Depression Visibility Wind Speed Wind Dir Waves Ship Positions

Wilson Lista

Last reported at 2017-Nov-20 00:30 UTC. Time now 2017-Nov-22 16:48 UTC.
Position N 54°06' E 009°20'.

Length 88 m; draft 5.4 m.

Type: Cargo ship. MMSI: 314188000.

Date/timePositionNaut miles runAvg speedWind from/ knotsBaromVisibWave heightAir tempDewpointWater temp
2017-Nov-20 00:30N 54°06' E 009°20'5 8.7
2017-Nov-19 23:58N 54°01' E 009°18'4 8.2
2017-Nov-19 23:30N 53°58' E 009°15'2 3.2
2017-Nov-19 23:01N 53°57' E 009°13'1 1.5
2017-Nov-19 22:30N 53°56' E 009°13'3 6.7
2017-Nov-19 22:00N 53°54' E 009°09'0 0.6
2017-Nov-19 21:30N 53°53' E 009°08'2 3.1
2017-Nov-19 21:00N 53°53' E 009°06'3 6.4
2017-Nov-19 20:30N 53°51' E 009°01'4 7.0
2017-Nov-19 20:00N 53°51' E 008°55'4 7.4
2017-Nov-19 19:30N 53°50' E 008°49'4 6.9
2017-Nov-19 19:00N 53°52' E 008°44'3 6.7
2017-Nov-19 18:29N 53°55' E 008°41'3 6.2
2017-Nov-19 17:57N 53°57' E 008°37'3 7.6
2017-Nov-19 17:30N 53°58' E 008°31'4 7.7
2017-Nov-19 16:57N 53°59' E 008°24'3 7.4
2017-Nov-19 16:29N 53°59' E 008°18'4 8.6
2017-Nov-19 16:00N 53°59' E 008°11'3 6.6
2017-Nov-19 15:30N 53°59' E 008°06'4 6.7
2017-Nov-19 14:54N 53°58' E 007°59'249 7.9
2017-Nov-18 07:35N 51°35' E 002°23'1 8.2
2017-Nov-18 07:28N 51°34' E 002°22'4 8.2
2017-Nov-18 07:00N 51°31' E 002°18'4 8.2
2017-Nov-18 06:30N 51°28' E 002°14'4 8.7
2017-Nov-18 05:59N 51°24' E 002°10'4 9.0
2017-Nov-18 05:30N 51°20' E 002°08'5 9.5
2017-Nov-18 05:00N 51°15' E 002°05'5 9.3
2017-Nov-18 04:30N 51°12' E 001°60'510.0
2017-Nov-18 04:00N 51°09' E 001°53'510.2
2017-Nov-18 03:29N 51°06' E 001°47'510.6
2017-Nov-18 03:00N 51°02' E 001°41'610.9
2017-Nov-18 02:30N 50°58' E 001°35'611.5
2017-Nov-18 02:00N 50°54' E 001°29'11710.9
2017-Nov-17 15:16N 50°05' W 001°18'2 8.0
2017-Nov-17 15:00N 50°05' W 001°21'4 7.5
2017-Nov-17 14:30N 50°04' W 001°27'3 7.0
2017-Nov-17 14:01N 50°03' W 001°32'3 6.6
2017-Nov-17 13:31N 50°02' W 001°37'3 6.3
2017-Nov-17 13:01N 50°01' W 001°42'3 6.1
2017-Nov-17 12:30N 50°00' W 001°46'3 6.5
2017-Nov-17 12:00N 49°59' W 001°51'4 7.1
2017-Nov-17 11:30N 49°58' W 001°56'183 9.5
2017-Nov-16 16:15N 48°18' W 005°51'1310.1
2017-Nov-16 14:59N 48°05' W 005°56'610.5
2017-Nov-16 14:26N 47°60' W 005°58'1010.8
2017-Nov-16 13:30N 47°50' W 006°02'711.1
2017-Nov-16 12:50N 47°43' W 006°04'2311.2
2017-Nov-16 10:47N 47°21' W 006°12'2410.0
2017-Nov-16 08:24N 46°57' W 006°20'192 9.8
2017-Nov-15 12:44N 43°50' W 007°25'3 9.4
2017-Nov-15 12:28N 43°48' W 007°25'3 0.1
2017-Nov-14 12:13N 43°45' W 007°25'0 1.8
2017-Nov-14 11:59N 43°45' W 007°25'1 1.9
2017-Nov-14 11:30N 43°45' W 007°26'1 1.7
2017-Nov-14 11:00N 43°45' W 007°27'1 1.9
2017-Nov-14 10:30N 43°45' W 007°29'1 1.6
2017-Nov-14 10:00N 43°45' W 007°28'3 6.4
2017-Nov-14 09:30N 43°46' W 007°24'156 5.0
2017-Nov-13 01:58N 43°27' W 003°49'0 0.0
2017-Nov-13 01:28N 43°27' W 003°49'0 0.0
2017-Nov-13 00:58N 43°27' W 003°49'0 0.0
2017-Nov-13 00:28N 43°27' W 003°49'0 0.0
2017-Nov-13 00:00N 43°27' W 003°49'0 0.0
2017-Nov-12 23:30N 43°27' W 003°49'0 0.0
2017-Nov-12 23:00N 43°27' W 003°49'0 0.0
2017-Nov-12 22:30N 43°27' W 003°49'0 0.0
2017-Nov-12 21:57N 43°27' W 003°49'0 0.0
2017-Nov-12 21:29N 43°27' W 003°49'0 0.0
2017-Nov-12 20:59N 43°27' W 003°49'0 0.0
2017-Nov-12 20:29N 43°27' W 003°49'0 0.0
2017-Nov-12 19:59N 43°27' W 003°49'0 0.0
2017-Nov-12 19:29N 43°27' W 003°49'0 0.0
2017-Nov-12 18:58N 43°27' W 003°49'0 0.0
2017-Nov-12 17:55N 43°27' W 003°49'0 0.0
2017-Nov-12 17:28N 43°27' W 003°49'0 0.0
2017-Nov-12 17:00N 43°27' W 003°49'0 0.0
2017-Nov-12 16:30N 43°27' W 003°49'0 0.0
2017-Nov-12 16:00N 43°27' W 003°49'0 0.0
2017-Nov-12 13:59N 43°27' W 003°49'0 0.0
2017-Nov-12 13:20N 43°27' W 003°49'0 0.0
2017-Nov-12 12:56N 43°27' W 003°49'0 0.0
2017-Nov-12 12:28N 43°27' W 003°49'0 0.0
2017-Nov-12 11:46N 43°27' W 003°49'0 0.0
2017-Nov-12 11:25N 43°27' W 003°49'0 0.0
2017-Nov-12 10:37N 43°27' W 003°49'0 0.0
2017-Nov-12 10:28N 43°27' W 003°49'0 0.0
2017-Nov-12 10:00N 43°27' W 003°49'0 0.0
2017-Nov-12 09:27N 43°27' W 003°49'0 0.0
2017-Nov-12 09:00N 43°27' W 003°49'0 0.0
2017-Nov-12 08:21N 43°27' W 003°49'0 0.0
2017-Nov-12 08:00N 43°27' W 003°49'0 0.0
2017-Nov-12 07:20N 43°27' W 003°49'0 0.0
2017-Nov-12 06:53N 43°27' W 003°49'0 0.0
2017-Nov-12 06:26N 43°27' W 003°49'0 0.0
2017-Nov-12 05:59N 43°27' W 003°49'0 0.0
2017-Nov-12 05:25N 43°27' W 003°49'0 0.0
2017-Nov-12 04:58N 43°27' W 003°49'0 0.0
2017-Nov-12 04:28N 43°27' W 003°49'0 0.0
2017-Nov-12 03:58N 43°27' W 003°49'0 0.0
2017-Nov-12 02:54N 43°27' W 003°49'0 0.0
2017-Nov-12 02:30N 43°27' W 003°49'0 0.0
2017-Nov-12 01:57N 43°27' W 003°49'0 0.0
2017-Nov-12 01:30N 43°27' W 003°49'0 0.0
2017-Nov-12 00:56N 43°27' W 003°49'0 0.0
2017-Nov-12 00:29N 43°27' W 003°49'0 0.0
2017-Nov-11 23:59N 43°27' W 003°49'0 0.0
2017-Nov-11 23:29N 43°27' W 003°49'0 0.0
2017-Nov-11 22:56N 43°27' W 003°49'0 0.0
2017-Nov-11 22:25N 43°27' W 003°49'0 0.0
2017-Nov-11 21:58N 43°27' W 003°49'0 0.0
2017-Nov-11 21:28N 43°27' W 003°49'0 0.0
2017-Nov-11 20:52N 43°27' W 003°49'0 0.0
2017-Nov-11 19:48N 43°27' W 003°49'0 0.0
2017-Nov-11 19:27N 43°27' W 003°49'0 0.0
2017-Nov-11 19:00N 43°27' W 003°49'0 0.0
2017-Nov-11 18:30N 43°27' W 003°49'0 0.0
2017-Nov-11 17:26N 43°27' W 003°49'0 0.0
2017-Nov-11 16:59N 43°27' W 003°49'0 0.0
2017-Nov-11 16:14N 43°27' W 003°49'0 0.1
2017-Nov-11 16:01N 43°27' W 003°49'1 2.6
2017-Nov-11 15:30N 43°27' W 003°48'3 6.2
2017-Nov-11 14:57N 43°31' W 003°46'4 9.4
2017-Nov-11 14:30N 43°35' W 003°47'5 9.6
2017-Nov-11 14:00N 43°39' W 003°49'5 9.5
2017-Nov-11 13:30N 43°44' W 003°51'  

Dump ship's entire track history